createdAt,value
2023-01-28T03:59:29.688Z,2.10
2023-01-28T04:00:30.472Z,1.40
2023-01-28T04:01:30.737Z,2.70
2023-01-28T04:02:31.013Z,1.80
2023-01-28T04:03:31.201Z,1.60
2023-01-28T04:04:30.926Z,1.90
2023-01-28T04:05:31.173Z,1.50
2023-01-28T04:06:31.429Z,1.60
2023-01-28T04:07:30.758Z,1.70
2023-01-28T04:08:29.931Z,1.50
2023-01-28T04:09:30.094Z,1.60
2023-01-28T04:10:30.230Z,1.50
2023-01-28T04:11:31.955Z,1.80
2023-01-28T04:12:30.446Z,1.90
2023-01-28T04:13:30.573Z,1.70
2023-01-28T04:14:30.685Z,2.10
2023-01-28T04:15:30.796Z,2.20
2023-01-28T04:16:32.051Z,1.70
2023-01-28T04:17:31.035Z,1.90
2023-01-28T04:18:31.154Z,1.80
2023-01-28T04:19:31.292Z,1.40
2023-01-28T04:20:31.415Z,1.50
2023-01-28T04:21:32.674Z,1.60
2023-01-28T04:22:32.642Z,1.70
2023-01-28T04:23:32.829Z,1.40
2023-01-28T04:24:32.577Z,2.10
2023-01-28T04:25:33.115Z,1.90
2023-01-28T04:26:33.837Z,2.00
2023-01-28T04:27:35.035Z,1.10
2023-01-28T04:28:34.283Z,2.20
2023-01-28T04:29:34.536Z,1.40
2023-01-28T04:30:34.313Z,2.40
2023-01-28T04:31:34.559Z,2.20
2023-01-28T04:32:34.751Z,1.20
2023-01-28T04:33:34.995Z,2.80
2023-01-28T04:34:33.271Z,2.10
2023-01-28T04:35:33.412Z,1.40
2023-01-28T04:36:34.674Z,2.20
2023-01-28T04:37:33.669Z,2.00
2023-01-28T04:38:33.759Z,2.00
2023-01-28T04:39:33.941Z,2.10
2023-01-28T04:40:35.651Z,1.90
2023-01-28T04:41:35.401Z,1.70
2023-01-28T04:42:34.372Z,1.70
2023-01-28T04:43:34.519Z,2.30
2023-01-28T04:44:34.615Z,1.40
2023-01-28T04:45:34.736Z,1.80
2023-01-28T04:46:36.514Z,2.50
2023-01-28T04:47:36.230Z,1.40
2023-01-28T04:48:35.149Z,1.80
2023-01-28T04:49:35.347Z,1.20
2023-01-28T04:50:35.462Z,2.10
2023-01-28T04:51:37.218Z,1.50
2023-01-28T04:52:37.442Z,1.70
2023-01-28T04:53:37.195Z,2.00
2023-01-28T04:54:37.949Z,1.60
2023-01-28T04:55:37.099Z,1.90
2023-01-28T04:56:38.138Z,1.80
2023-01-28T04:57:37.449Z,1.40
2023-01-28T04:58:37.408Z,1.40
2023-01-28T04:59:37.547Z,1.70
2023-01-28T05:00:36.729Z,1.50
2023-01-28T05:01:37.560Z,2.10
2023-01-28T05:02:37.758Z,1.30
2023-01-28T05:03:38.216Z,1.20
2023-01-28T05:04:38.080Z,1.80
2023-01-28T05:05:38.421Z,1.80
2023-01-28T05:06:38.567Z,1.90
2023-01-28T05:07:39.294Z,2.00
2023-01-28T05:08:38.728Z,1.70
2023-01-28T05:09:38.865Z,1.80
2023-01-28T05:10:39.028Z,1.70
2023-01-28T05:11:39.486Z,1.20
2023-01-28T05:12:39.094Z,2.10
2023-01-28T05:13:39.620Z,1.60
2023-01-28T05:14:39.410Z,2.50
2023-01-28T05:15:39.569Z,2.30
2023-01-28T05:16:39.730Z,1.20
2023-01-28T05:17:39.123Z,2.00
2023-01-28T05:18:40.450Z,1.50
2023-01-28T05:19:39.396Z,3.00
2023-01-28T05:20:39.513Z,1.50
2023-01-28T05:21:39.676Z,1.90
2023-01-28T05:22:41.414Z,1.80
2023-01-28T05:23:41.164Z,1.60
2023-01-28T05:24:40.045Z,1.80
2023-01-28T05:25:41.194Z,1.40
2023-01-28T05:26:41.366Z,1.60
2023-01-28T05:27:42.098Z,2.10
2023-01-28T05:28:41.835Z,2.00
2023-01-28T05:29:41.815Z,2.10
2023-01-28T05:30:40.998Z,2.00
2023-01-28T05:31:43.505Z,2.40
2023-01-28T05:32:42.120Z,1.80
2023-01-28T05:33:43.911Z,1.50
2023-01-28T05:34:43.976Z,2.20
2023-01-28T05:35:44.103Z,2.70
2023-01-28T05:36:42.825Z,1.50
2023-01-28T05:37:42.873Z,1.40
2023-01-28T05:38:43.261Z,1.20
2023-01-28T05:39:43.150Z,1.60
2023-01-28T05:40:43.343Z,2.50
2023-01-28T05:41:43.463Z,1.50
2023-01-28T05:42:43.381Z,1.50
2023-01-28T05:43:43.902Z,1.60
2023-01-28T05:44:44.081Z,1.40
2023-01-28T05:45:44.056Z,1.80
2023-01-28T05:46:44.014Z,1.70
2023-01-28T05:47:45.954Z,1.40
2023-01-28T05:48:45.181Z,2.60
2023-01-28T05:49:43.599Z,1.50
2023-01-28T05:50:43.712Z,2.10
2023-01-28T05:51:43.831Z,2.00
2023-01-28T05:52:43.983Z,1.40
2023-01-28T05:53:45.208Z,1.70
2023-01-28T05:54:44.261Z,1.80
2023-01-28T05:55:46.018Z,1.40
2023-01-28T05:56:44.513Z,1.70
2023-01-28T05:57:47.199Z,1.70
2023-01-28T05:58:47.453Z,2.10
2023-01-28T05:59:47.689Z,1.90
2023-01-28T06:00:46.010Z,1.60
2023-01-28T06:01:46.226Z,1.90
2023-01-28T06:02:47.776Z,1.60
2023-01-28T06:03:48.022Z,1.70
2023-01-28T06:04:48.277Z,1.30
2023-01-28T06:05:48.213Z,2.00
2023-01-28T06:06:46.775Z,1.70
2023-01-28T06:07:46.937Z,1.70
2023-01-28T06:08:47.045Z,2.30
2023-01-28T06:09:47.866Z,2.20
2023-01-28T06:10:47.336Z,1.70
2023-01-28T06:11:47.509Z,2.20
2023-01-28T06:12:47.422Z,1.90
2023-01-28T06:13:47.860Z,2.20
2023-01-28T06:14:48.087Z,1.30
2023-01-28T06:15:48.135Z,1.90
2023-01-28T06:16:48.879Z,1.60
2023-01-28T06:17:48.427Z,1.90
2023-01-28T06:18:50.026Z,1.80
2023-01-28T06:19:48.687Z,2.50
2023-01-28T06:20:49.423Z,1.40
2023-01-28T06:21:48.844Z,2.70
2023-01-28T06:22:49.079Z,1.80
2023-01-28T06:23:48.248Z,1.40
2023-01-28T06:24:50.932Z,1.70
2023-01-28T06:25:50.722Z,1.30
2023-01-28T06:26:48.604Z,1.90
2023-01-28T06:27:51.332Z,2.00
2023-01-28T06:28:51.296Z,1.60
2023-01-28T06:29:51.513Z,1.30
2023-01-28T06:30:51.755Z,2.10
2023-01-28T06:31:50.216Z,2.70
2023-01-28T06:32:50.352Z,1.50
2023-01-28T06:33:51.969Z,1.80
2023-01-28T06:34:52.227Z,1.90
2023-01-28T06:35:52.337Z,2.60
2023-01-28T06:36:50.743Z,2.00
2023-01-28T06:37:52.638Z,2.00
2023-01-28T06:38:52.729Z,2.10
2023-01-28T06:39:52.831Z,2.50
2023-01-28T06:40:52.973Z,2.00
2023-01-28T06:41:51.547Z,2.80
2023-01-28T06:42:53.237Z,1.40
2023-01-28T06:43:52.050Z,1.40
2023-01-28T06:44:52.823Z,1.40
2023-01-28T06:45:51.930Z,1.30
2023-01-28T06:46:52.081Z,1.70
2023-01-28T06:47:52.252Z,2.00
2023-01-28T06:48:52.617Z,1.80
2023-01-28T06:49:51.724Z,1.50
2023-01-28T06:50:53.003Z,2.10
2023-01-28T06:51:53.791Z,1.60
2023-01-28T06:52:52.099Z,1.90
2023-01-28T06:53:52.162Z,2.70
2023-01-28T06:54:52.285Z,1.30
2023-01-28T06:55:53.519Z,1.30
2023-01-28T06:56:52.541Z,2.00
2023-01-28T06:57:52.692Z,2.20
2023-01-28T06:58:54.458Z,1.30
2023-01-28T06:59:54.202Z,1.40
2023-01-28T07:00:54.948Z,1.70
2023-01-28T07:01:54.722Z,1.50
2023-01-28T07:02:54.981Z,2.10
2023-01-28T07:03:55.184Z,1.80
2023-01-28T07:04:55.423Z,1.90
2023-01-28T07:05:53.649Z,1.70
2023-01-28T07:06:55.417Z,1.80
2023-01-28T07:07:55.662Z,1.30
2023-01-28T07:08:55.910Z,1.80
2023-01-28T07:09:55.664Z,1.70
2023-01-28T07:10:55.933Z,2.20
2023-01-28T07:11:56.170Z,1.70
2023-01-28T07:12:56.445Z,1.90
2023-01-28T07:13:56.738Z,2.60
2023-01-28T07:14:56.484Z,1.80
2023-01-28T07:15:56.718Z,1.70
2023-01-28T07:16:57.036Z,2.10
2023-01-28T07:17:57.248Z,2.00
2023-01-28T07:18:57.007Z,1.40
2023-01-28T07:19:57.270Z,1.50
2023-01-28T07:20:57.536Z,2.10
2023-01-28T07:21:57.288Z,1.90
2023-01-28T07:22:55.911Z,1.90
2023-01-28T07:23:58.577Z,1.70
2023-01-28T07:24:58.875Z,2.70
2023-01-28T07:25:57.295Z,1.70
2023-01-28T07:26:59.021Z,1.90
2023-01-28T07:27:59.259Z,1.60
2023-01-28T07:28:57.775Z,1.80
2023-01-28T07:29:56.944Z,1.90
2023-01-28T07:30:59.779Z,2.30
2023-01-28T07:31:57.256Z,1.60
2023-01-28T07:32:59.960Z,1.70
2023-01-28T07:33:58.921Z,1.90
2023-01-28T07:35:00.069Z,1.90
2023-01-28T07:36:00.318Z,2.10
2023-01-28T07:36:58.553Z,2.20
2023-01-28T07:37:58.708Z,1.60
2023-01-28T07:38:58.863Z,2.10
2023-01-28T07:40:00.662Z,1.90
2023-01-28T07:40:59.984Z,1.30
2023-01-28T07:41:58.424Z,1.30
2023-01-28T07:43:00.192Z,2.50
2023-01-28T07:43:58.643Z,2.00
2023-01-28T07:44:58.755Z,2.80
2023-01-28T07:45:58.868Z,2.10
2023-01-28T07:46:59.052Z,1.90
2023-01-28T07:48:01.243Z,1.70
2023-01-28T07:48:59.281Z,2.10
2023-01-28T07:49:59.415Z,1.50
2023-01-28T07:51:01.176Z,1.50
2023-01-28T07:51:59.713Z,1.80
2023-01-28T07:52:59.903Z,1.20
2023-01-28T07:54:01.622Z,1.30
2023-01-28T07:55:00.172Z,1.90
2023-01-28T07:56:01.976Z,1.90
2023-01-28T07:57:00.432Z,1.50
2023-01-28T07:58:00.580Z,1.80
2023-01-28T07:59:00.680Z,1.70
2023-01-28T08:00:00.842Z,1.60
2023-01-28T08:01:02.658Z,2.70
2023-01-28T08:02:01.080Z,2.00
2023-01-28T08:03:01.236Z,1.90
2023-01-28T08:04:01.489Z,2.20
2023-01-28T08:05:01.519Z,2.00
2023-01-28T08:06:03.251Z,1.60
2023-01-28T08:07:01.718Z,1.70
2023-01-28T08:08:01.864Z,2.30
2023-01-28T08:09:01.940Z,1.30
2023-01-28T08:10:03.175Z,1.50
2023-01-28T08:11:03.418Z,1.60
2023-01-28T08:12:02.319Z,1.30
2023-01-28T08:13:02.478Z,1.90
2023-01-28T08:14:02.557Z,1.70
2023-01-28T08:15:02.690Z,1.90
2023-01-28T08:16:04.493Z,1.80
2023-01-28T08:17:04.196Z,2.40
2023-01-28T08:18:03.157Z,1.50
2023-01-28T08:19:03.333Z,1.30
2023-01-28T08:20:04.571Z,2.50
2023-01-28T08:21:04.836Z,2.50
2023-01-28T08:22:03.707Z,1.30
2023-01-28T08:23:03.834Z,2.10
2023-01-28T08:24:04.918Z,2.10
2023-01-28T08:25:04.148Z,2.00
2023-01-28T08:26:05.901Z,2.30
2023-01-28T08:27:04.367Z,2.20
2023-01-28T08:28:04.544Z,2.40
2023-01-28T08:29:04.625Z,2.20
2023-01-28T08:30:04.781Z,2.10
2023-01-28T08:31:06.097Z,1.30
2023-01-28T08:32:05.045Z,1.50
2023-01-28T08:33:06.798Z,1.90
2023-01-28T08:34:05.264Z,1.40
2023-01-28T08:35:05.419Z,1.90
2023-01-28T08:36:06.609Z,1.70
2023-01-28T08:37:06.681Z,1.80
2023-01-28T08:38:06.943Z,2.10
2023-01-28T08:39:06.021Z,1.60
2023-01-28T08:40:07.116Z,2.20
2023-01-28T08:41:06.242Z,1.60
2023-01-28T08:42:08.020Z,2.00
2023-01-28T08:43:06.514Z,1.80
2023-01-28T08:44:06.613Z,2.30
2023-01-28T08:45:06.682Z,2.90
2023-01-28T08:46:06.901Z,2.70
2023-01-28T08:47:08.572Z,1.90
2023-01-28T08:48:08.031Z,1.90
2023-01-28T08:49:08.243Z,1.80
2023-01-28T08:50:08.353Z,1.60
2023-01-28T08:51:08.612Z,1.60
2023-01-28T08:52:07.672Z,1.70
2023-01-28T08:53:07.844Z,2.70
2023-01-28T08:54:08.003Z,2.30
2023-01-28T08:55:08.155Z,1.90
2023-01-28T08:56:09.895Z,2.10
2023-01-28T08:57:10.192Z,1.50
2023-01-28T08:58:09.530Z,2.00
2023-01-28T08:59:08.640Z,1.80
2023-01-28T09:00:10.394Z,1.80
2023-01-28T09:01:10.643Z,1.90
2023-01-28T09:02:19.067Z,2.20
2023-01-28T09:03:11.833Z,2.50
2023-01-28T09:04:09.362Z,2.40
2023-01-28T09:05:09.442Z,2.20
2023-01-28T09:06:09.561Z,2.50
2023-01-28T09:07:11.336Z,1.20
2023-01-28T09:08:09.805Z,1.90
2023-01-28T09:09:10.021Z,1.90
2023-01-28T09:10:11.695Z,1.90
2023-01-28T09:11:11.129Z,2.10
2023-01-28T09:12:10.312Z,1.70
2023-01-28T09:13:12.056Z,2.20
2023-01-28T09:14:12.305Z,1.90
2023-01-28T09:15:10.719Z,2.40
2023-01-28T09:16:10.958Z,2.30
2023-01-28T09:17:11.005Z,1.80
2023-01-28T09:18:11.163Z,2.30
2023-01-28T09:19:13.103Z,2.20
2023-01-28T09:20:13.851Z,2.70
2023-01-28T09:21:11.556Z,2.10
2023-01-28T09:22:11.628Z,2.50
2023-01-28T09:23:11.750Z,2.30
2023-01-28T09:24:13.515Z,2.10
2023-01-28T09:25:12.067Z,2.90
2023-01-28T09:26:13.846Z,3.00
2023-01-28T09:27:12.359Z,2.30
2023-01-28T09:28:12.487Z,2.50
2023-01-28T09:29:14.238Z,3.10
2023-01-28T09:30:13.304Z,2.40
2023-01-28T09:31:12.984Z,3.20
2023-01-28T09:32:13.016Z,3.40
2023-01-28T09:33:13.158Z,3.70
2023-01-28T09:34:14.918Z,3.90
2023-01-28T09:35:13.405Z,3.50
2023-01-28T09:36:13.605Z,3.80
2023-01-28T09:37:15.385Z,3.30
2023-01-28T09:38:15.586Z,3.20
2023-01-28T09:39:14.029Z,3.50
2023-01-28T09:40:16.252Z,3.70
2023-01-28T09:41:14.323Z,3.80
2023-01-28T09:42:14.454Z,3.90
2023-01-28T09:43:16.188Z,3.60
2023-01-28T09:44:16.428Z,3.90
2023-01-28T09:45:15.893Z,3.80
2023-01-28T09:46:16.007Z,4.30
2023-01-28T09:47:16.103Z,3.50
2023-01-28T09:48:16.217Z,4.00
2023-01-28T09:49:16.963Z,3.90
2023-01-28T09:50:16.924Z,3.60
2023-01-28T09:51:15.708Z,3.70
2023-01-28T09:52:17.444Z,4.20
2023-01-28T09:53:17.684Z,3.50
2023-01-28T09:54:16.124Z,4.60
2023-01-28T09:55:17.356Z,3.40
2023-01-28T09:56:17.335Z,4.10
2023-01-28T09:57:16.501Z,3.60
2023-01-28T09:58:18.235Z,3.50
2023-01-28T09:59:16.779Z,3.90
2023-01-28T10:00:18.837Z,4.60
2023-01-28T10:01:17.200Z,3.50
2023-01-28T10:02:17.233Z,3.60
2023-01-28T10:13:50.232Z,4.90
2023-01-28T10:14:51.323Z,5.00
2023-01-28T10:15:51.461Z,4.20
2023-01-28T10:16:52.186Z,4.50
2023-01-28T10:17:51.703Z,4.60
2023-01-28T10:18:52.444Z,4.40
2023-01-28T10:19:52.210Z,4.10
2023-01-28T10:20:51.157Z,4.40
2023-01-28T10:21:51.252Z,4.20
2023-01-28T10:22:52.416Z,4.00
2023-01-28T10:23:51.461Z,4.40
2023-01-28T10:24:53.207Z,4.30
2023-01-28T10:25:52.961Z,4.90
2023-01-28T10:26:51.849Z,4.00
2023-01-28T10:27:53.046Z,4.20
2023-01-28T10:28:52.214Z,4.00
2023-01-28T10:29:53.264Z,5.00
2023-01-28T10:30:54.072Z,4.50
2023-01-28T10:31:52.576Z,4.00
2023-01-28T10:32:52.671Z,4.60
2023-01-28T10:33:55.439Z,4.00
2023-01-28T10:34:52.868Z,4.20
2023-01-28T10:35:54.091Z,4.50
2023-01-28T10:36:53.091Z,4.00
2023-01-28T10:37:53.192Z,4.00
2023-01-28T10:38:54.459Z,4.40
2023-01-28T10:39:53.534Z,4.30
2023-01-28T10:40:53.607Z,4.60
2023-01-28T10:41:58.238Z,4.20
2023-01-28T10:42:53.871Z,4.50
2023-01-28T10:43:55.622Z,4.50
2023-01-28T10:44:54.128Z,4.90
2023-01-28T10:45:54.321Z,4.10
2023-01-28T10:46:54.349Z,4.60
2023-01-28T10:47:56.135Z,4.60
2023-01-28T10:48:54.586Z,4.20
2023-01-28T10:49:55.717Z,4.40
2023-01-28T10:50:55.867Z,4.20
2023-01-28T10:51:56.618Z,3.90
2023-01-28T10:52:56.141Z,4.00
2023-01-28T10:53:55.317Z,4.00
2023-01-28T10:54:55.478Z,3.50
2023-01-28T10:55:55.665Z,4.10
2023-01-28T10:56:57.402Z,4.00
2023-01-28T10:57:56.861Z,4.30
2023-01-28T10:58:56.986Z,3.80
2023-01-28T10:59:57.123Z,4.00
2023-01-28T11:00:57.373Z,4.30
2023-01-28T11:01:58.153Z,3.80
2023-01-28T11:02:58.324Z,4.00
2023-01-28T11:03:58.552Z,3.40
2023-01-28T11:04:56.782Z,3.40
2023-01-28T11:05:56.909Z,3.90
2023-01-28T11:06:58.628Z,3.60
2023-01-28T11:07:57.145Z,3.70
2023-01-28T11:08:58.683Z,3.70
2023-01-28T11:09:58.373Z,4.10
2023-01-28T11:10:58.670Z,3.60
2023-01-28T11:11:57.686Z,4.00
2023-01-28T11:12:57.827Z,3.80
2023-01-28T11:13:57.976Z,3.90
2023-01-28T11:14:58.170Z,3.90
2023-01-28T11:15:59.394Z,3.50
2023-01-28T11:17:00.141Z,3.80
2023-01-28T11:17:58.614Z,3.50
2023-01-28T11:18:58.712Z,4.70
2023-01-28T11:19:58.833Z,4.20
2023-01-28T11:21:00.065Z,3.50
2023-01-28T11:21:59.113Z,3.60
2023-01-28T11:22:59.201Z,4.40
2023-01-28T11:24:01.015Z,3.50
2023-01-28T11:25:00.491Z,3.30
2023-01-28T11:26:00.739Z,4.10
2023-01-28T11:27:02.305Z,3.50
2023-01-28T11:28:00.857Z,3.50
2023-01-28T11:29:00.000Z,3.60
2023-01-28T11:30:01.103Z,3.20
2023-01-28T11:31:03.362Z,3.60
2023-01-28T11:32:01.498Z,3.40
2023-01-28T11:33:00.557Z,3.40
2023-01-28T11:34:00.673Z,3.80
2023-01-28T11:35:01.746Z,3.40
2023-01-28T11:36:02.022Z,3.50
2023-01-28T11:37:02.774Z,3.50
2023-01-28T11:38:02.132Z,3.30
2023-01-28T11:39:02.261Z,3.40
2023-01-28T11:40:01.372Z,3.90
2023-01-28T11:41:02.610Z,3.30
2023-01-28T11:42:03.343Z,3.40
2023-01-28T11:43:01.747Z,3.50
2023-01-28T11:44:01.908Z,3.50
2023-01-28T11:45:02.013Z,3.10
2023-01-28T11:46:05.037Z,3.30
2023-01-28T11:47:03.889Z,4.30
2023-01-28T11:48:02.381Z,3.80
2023-01-28T11:49:02.480Z,3.70
2023-01-28T11:50:04.254Z,3.90
2023-01-28T11:51:04.498Z,3.70
2023-01-28T11:52:04.738Z,3.60
2023-01-28T11:53:07.167Z,3.30
2023-01-28T11:54:03.156Z,4.00
2023-01-28T11:55:04.319Z,3.70
2023-01-28T11:56:04.416Z,3.70
2023-01-28T11:57:05.170Z,3.70
2023-01-28T11:58:03.720Z,3.90
2023-01-28T11:59:04.918Z,3.50
2023-01-28T12:00:04.965Z,4.70
2023-01-28T12:01:05.087Z,3.60
2023-01-28T12:02:04.208Z,3.50
2023-01-28T12:03:05.956Z,3.60
2023-01-28T12:04:05.486Z,3.70
2023-01-28T12:05:05.594Z,4.40
2023-01-28T12:06:05.687Z,3.60
2023-01-28T12:07:06.418Z,3.70
2023-01-28T12:08:05.048Z,4.40
2023-01-28T12:09:06.108Z,3.50
2023-01-28T12:10:06.844Z,3.50
2023-01-28T12:11:06.444Z,3.40
2023-01-28T12:12:07.204Z,3.60
2023-01-28T12:13:05.694Z,3.70
2023-01-28T12:14:05.776Z,3.50
2023-01-28T12:15:07.558Z,4.00
2023-01-28T12:16:07.343Z,3.80
2023-01-28T12:17:07.155Z,3.70
2023-01-28T12:18:06.383Z,4.40
2023-01-28T12:19:07.533Z,3.80
2023-01-28T12:20:06.713Z,3.50
2023-01-28T12:21:09.162Z,3.50
2023-01-28T12:22:08.685Z,3.50
2023-01-28T12:23:08.905Z,3.60
2023-01-28T12:24:07.403Z,3.80
2023-01-28T12:25:07.341Z,3.40
2023-01-28T12:26:08.487Z,3.80
2023-01-28T12:27:07.612Z,3.70
2023-01-28T12:28:09.362Z,3.70
2023-01-28T12:29:09.634Z,3.60
2023-01-28T12:30:07.964Z,4.80
2023-01-28T12:31:09.800Z,4.20
2023-01-28T12:32:08.331Z,3.60
2023-01-28T12:33:10.014Z,3.80
2023-01-28T12:34:08.501Z,3.70
2023-01-28T12:35:10.267Z,3.50
2023-01-28T12:36:09.744Z,3.30
2023-01-28T12:37:10.490Z,3.50
2023-01-28T12:38:10.079Z,3.20
2023-01-28T12:39:10.838Z,3.80
2023-01-28T12:40:10.300Z,3.30
2023-01-28T12:41:11.050Z,3.50
2023-01-28T12:42:10.521Z,4.20
2023-01-28T12:43:09.672Z,3.40
2023-01-28T12:44:10.912Z,3.20
2023-01-28T12:45:09.980Z,3.90
2023-01-28T12:46:10.112Z,3.30
2023-01-28T12:47:11.878Z,4.00
2023-01-28T12:48:10.392Z,3.10
2023-01-28T12:49:11.639Z,3.40
2023-01-28T12:50:10.712Z,3.30
2023-01-28T12:51:10.848Z,3.20
2023-01-28T12:52:11.021Z,3.20
2023-01-28T12:53:12.781Z,4.00
2023-01-28T12:54:13.028Z,3.00
2023-01-28T12:55:11.419Z,3.30
2023-01-28T12:56:13.154Z,4.70
2023-01-28T12:57:13.407Z,4.10
2023-01-28T12:58:14.645Z,3.30
2023-01-28T12:59:13.883Z,2.70
2023-01-28T13:00:14.008Z,2.70
2023-01-28T13:01:12.221Z,2.60
2023-01-28T13:02:14.049Z,2.80
2023-01-28T13:03:14.232Z,2.60
2023-01-28T13:04:13.977Z,2.60
2023-01-28T13:05:14.708Z,2.90
2023-01-28T13:06:13.926Z,3.70
2023-01-28T13:07:14.690Z,2.80
2023-01-28T13:08:14.931Z,2.90
2023-01-28T13:09:14.304Z,3.00
2023-01-28T13:10:15.364Z,3.10
2023-01-28T13:11:14.557Z,3.20
2023-01-28T13:12:13.995Z,2.90
2023-01-28T13:13:15.487Z,2.60
2023-01-28T13:14:15.227Z,2.70
2023-01-28T13:15:14.523Z,3.00
2023-01-28T13:16:15.704Z,3.30
2023-01-28T13:17:14.465Z,2.80
2023-01-28T13:18:16.175Z,2.50
2023-01-28T13:19:15.932Z,3.40
2023-01-28T13:20:15.786Z,2.90
2023-01-28T13:21:16.007Z,2.80
2023-01-28T13:22:15.022Z,2.40
2023-01-28T13:23:16.766Z,3.20
2023-01-28T13:24:17.145Z,2.60
2023-01-28T13:25:17.437Z,3.00
2023-01-28T13:26:17.477Z,3.60
2023-01-28T13:27:15.719Z,3.10
2023-01-28T13:28:17.466Z,2.70
2023-01-28T13:29:17.704Z,2.70
2023-01-28T13:30:17.952Z,2.50
2023-01-28T13:31:18.178Z,3.00
2023-01-28T13:32:17.955Z,2.20
2023-01-28T13:33:18.191Z,2.40
2023-01-28T13:34:18.483Z,2.30
2023-01-28T13:35:18.724Z,3.20
2023-01-28T13:36:18.453Z,2.80
2023-01-28T13:37:18.734Z,2.30
2023-01-28T13:38:18.976Z,2.40
2023-01-28T13:39:19.243Z,2.90
2023-01-28T13:40:18.993Z,2.30
2023-01-28T13:41:19.192Z,2.50
2023-01-28T13:42:19.451Z,3.10
2023-01-28T13:43:19.691Z,2.70
2023-01-28T13:44:19.932Z,3.60
2023-01-28T13:45:19.679Z,3.50
2023-01-28T13:46:19.989Z,3.20
2023-01-28T13:47:20.149Z,2.90
2023-01-28T13:48:20.391Z,3.00
2023-01-28T13:49:19.662Z,3.30
2023-01-28T13:50:20.432Z,2.90
2023-01-28T13:51:20.641Z,2.60
2023-01-28T13:52:18.940Z,2.70
2023-01-28T13:53:20.752Z,2.50
2023-01-28T13:54:20.431Z,2.60
2023-01-28T13:55:37.159Z,3.30
2023-01-28T13:56:20.544Z,3.00
2023-01-28T13:57:19.659Z,2.50
2023-01-28T13:58:21.409Z,2.90
2023-01-28T13:59:21.685Z,2.60
2023-01-28T14:00:25.186Z,3.70
2023-01-28T14:01:21.206Z,3.30
2023-01-28T14:02:21.990Z,3.50
2023-01-28T14:03:21.449Z,2.70
2023-01-28T14:04:22.236Z,3.10
2023-01-28T14:05:21.955Z,2.80
2023-01-28T14:06:22.693Z,2.70
2023-01-28T14:07:22.012Z,2.80
2023-01-28T14:08:21.148Z,2.70
2023-01-28T14:09:22.291Z,2.60
2023-01-28T14:10:22.594Z,3.10
2023-01-28T14:11:21.698Z,2.60
2023-01-28T14:12:21.689Z,3.20
2023-01-28T14:13:21.849Z,2.70
2023-01-28T14:14:21.966Z,2.60
2023-01-28T14:15:23.718Z,2.80
2023-01-28T14:16:23.191Z,3.40
2023-01-28T14:17:22.362Z,2.70
2023-01-28T14:18:23.527Z,2.30
2023-01-28T14:19:23.767Z,3.60
2023-01-28T14:20:22.811Z,2.70
2023-01-28T14:21:23.896Z,3.20
2023-01-28T14:22:23.050Z,2.90
2023-01-28T14:23:24.788Z,3.10
2023-01-28T14:24:24.573Z,2.50
2023-01-28T14:25:24.453Z,2.50
2023-01-28T14:26:24.635Z,2.30
2023-01-28T14:27:24.772Z,2.90
2023-01-28T14:28:24.876Z,3.30
2023-01-28T14:29:25.660Z,3.30
2023-01-28T14:30:25.915Z,2.30
2023-01-28T14:31:26.249Z,2.90
2023-01-28T14:32:25.911Z,2.50
2023-01-28T14:33:26.112Z,3.20
2023-01-28T14:34:26.356Z,3.10
2023-01-28T14:35:26.604Z,2.50
2023-01-28T14:36:26.813Z,3.30
2023-01-28T14:37:27.455Z,3.00
2023-01-28T14:38:26.825Z,3.00
2023-01-28T14:39:28.131Z,2.80
2023-01-28T14:40:27.350Z,3.80
2023-01-28T14:41:27.085Z,3.00
2023-01-28T14:42:27.323Z,3.20
2023-01-28T14:43:27.594Z,3.80
2023-01-28T14:44:27.857Z,2.70
2023-01-28T14:45:27.605Z,2.40
2023-01-28T14:46:27.884Z,3.40
2023-01-28T14:47:28.087Z,3.10
2023-01-28T14:48:28.307Z,2.90
2023-01-28T14:49:28.552Z,2.80
2023-01-28T14:50:28.378Z,2.50
2023-01-28T14:51:30.316Z,2.60
2023-01-28T14:52:28.775Z,3.00
2023-01-28T14:53:29.025Z,3.20
2023-01-28T14:54:29.262Z,2.80
2023-01-28T14:55:28.502Z,4.30
2023-01-28T14:56:27.646Z,3.20
2023-01-28T14:57:27.774Z,2.80
2023-01-28T14:58:29.011Z,2.40
2023-01-28T14:59:28.041Z,3.20
2023-01-28T15:00:28.110Z,3.10
2023-01-28T15:01:29.311Z,2.80
2023-01-28T15:02:29.561Z,3.50
2023-01-28T15:03:29.597Z,2.60
2023-01-28T15:04:29.748Z,3.20
2023-01-28T15:05:29.819Z,2.70
2023-01-28T15:06:30.084Z,2.90
2023-01-28T15:07:30.113Z,2.50
2023-01-28T15:08:30.350Z,2.90
2023-01-28T15:09:29.342Z,3.10
2023-01-28T15:10:29.476Z,3.30
2023-01-28T15:11:30.605Z,2.80
2023-01-28T15:12:30.835Z,2.40
2023-01-28T15:13:29.858Z,3.10
2023-01-28T15:14:29.983Z,2.70
2023-01-28T15:15:31.774Z,3.60
2023-01-28T15:16:31.244Z,3.00
2023-01-28T15:17:31.418Z,3.20
2023-01-28T15:18:31.537Z,2.70
2023-01-28T15:19:31.764Z,2.20
2023-01-28T15:20:31.745Z,2.50
2023-01-28T15:21:32.028Z,3.60
2023-01-28T15:22:32.703Z,2.90
2023-01-28T15:23:31.160Z,3.60
2023-01-28T15:24:31.921Z,2.40
2023-01-28T15:25:32.208Z,2.90
2023-01-28T15:26:32.370Z,2.70
2023-01-28T15:27:32.529Z,2.50
2023-01-28T15:28:32.957Z,3.20
2023-01-28T15:29:32.846Z,2.30
2023-01-28T15:30:33.048Z,2.60
2023-01-28T15:31:33.218Z,2.60
2023-01-28T15:32:33.333Z,3.20
2023-01-28T15:33:34.210Z,3.10
2023-01-28T15:34:33.959Z,2.90
2023-01-28T15:35:33.832Z,3.00
2023-01-28T15:36:34.007Z,2.80
2023-01-28T15:37:34.115Z,2.50
2023-01-28T15:38:34.848Z,2.90
2023-01-28T15:39:34.397Z,3.80
2023-01-28T15:40:34.647Z,3.20
2023-01-28T15:41:34.619Z,2.60
2023-01-28T15:42:34.771Z,2.30
2023-01-28T15:43:35.044Z,2.70
2023-01-28T15:44:35.305Z,3.20
2023-01-28T15:45:35.195Z,2.50
2023-01-28T15:46:35.348Z,3.20
2023-01-28T15:47:35.569Z,2.30
2023-01-28T15:48:35.608Z,2.40
2023-01-28T15:49:35.891Z,2.40
2023-01-28T15:50:35.827Z,2.40
2023-01-28T15:51:36.013Z,3.20
2023-01-28T15:52:36.132Z,3.00
2023-01-28T15:53:35.246Z,2.90
2023-01-28T15:54:36.983Z,3.00
2023-01-28T15:55:35.496Z,2.40
2023-01-28T15:56:35.678Z,2.50
2023-01-28T15:57:35.740Z,3.20
2023-01-28T15:58:35.883Z,3.10
2023-01-28T15:59:37.131Z,2.50
2023-01-28T16:00:37.105Z,3.00
2023-01-28T16:01:36.301Z,3.30
2023-01-28T16:13:04.155Z,3.40
2023-01-28T16:14:04.267Z,3.20
2023-01-28T16:15:04.413Z,3.20
2023-01-28T16:16:05.774Z,3.00
2023-01-28T16:17:05.886Z,3.40
2023-01-28T16:18:05.646Z,2.40
2023-01-28T16:19:04.904Z,2.70
2023-01-28T16:20:05.055Z,3.90
2023-01-28T16:21:05.225Z,2.90
2023-01-28T16:22:06.953Z,3.40
2023-01-28T16:23:06.459Z,3.80
2023-01-28T16:24:06.668Z,3.20
2023-01-28T16:25:06.892Z,3.50
2023-01-28T16:26:06.824Z,3.60
2023-01-28T16:27:07.135Z,3.00
2023-01-28T16:28:07.182Z,3.40
2023-01-28T16:29:07.485Z,4.10
2023-01-28T16:30:07.430Z,3.40
2023-01-28T16:31:07.714Z,3.30
2023-01-28T16:32:06.708Z,3.30
2023-01-28T16:33:07.834Z,3.20
2023-01-28T16:34:06.972Z,3.60
2023-01-28T16:35:08.189Z,3.30
2023-01-28T16:36:09.006Z,3.80
2023-01-28T16:37:08.364Z,3.40
2023-01-28T16:38:08.545Z,4.00
2023-01-28T16:39:07.699Z,4.20
2023-01-28T16:40:09.471Z,4.20
2023-01-28T16:41:08.929Z,5.00
2023-01-28T16:42:09.708Z,4.80
2023-01-28T16:43:09.439Z,4.10
2023-01-28T16:44:10.191Z,4.30
2023-01-28T16:45:08.518Z,5.20
2023-01-28T16:46:09.905Z,4.60
2023-01-28T16:47:09.840Z,4.40
2023-01-28T16:48:10.106Z,5.00
2023-01-28T16:49:09.117Z,5.40
2023-01-28T16:50:09.288Z,4.80
2023-01-28T16:51:10.303Z,5.00
2023-01-28T16:52:11.108Z,5.20
2023-01-28T16:53:09.667Z,4.80
2023-01-28T16:54:10.806Z,4.40
2023-01-28T16:55:09.988Z,4.90
2023-01-28T16:56:30.156Z,5.20
2023-01-28T16:57:12.803Z,5.10
2023-01-28T16:58:11.325Z,5.60
2023-01-28T16:59:10.458Z,6.30
2023-01-28T17:00:12.216Z,5.20
2023-01-28T17:01:12.492Z,5.60
2023-01-28T17:02:11.895Z,4.40
2023-01-28T17:03:12.035Z,5.10
2023-01-28T17:04:12.823Z,4.70
2023-01-28T17:05:12.423Z,6.00
2023-01-28T17:06:13.177Z,4.60
2023-01-28T17:07:12.548Z,5.10
2023-01-28T17:08:12.714Z,5.50
2023-01-28T17:09:12.855Z,5.50
2023-01-28T17:10:12.971Z,5.20
2023-01-28T17:11:13.194Z,4.70
2023-01-28T17:12:13.228Z,4.90
2023-01-28T17:13:13.364Z,5.00
2023-01-28T17:14:12.539Z,5.10
2023-01-28T17:15:12.653Z,5.10
2023-01-28T17:16:14.432Z,5.20
2023-01-28T17:17:13.903Z,4.50
2023-01-28T17:18:13.058Z,5.20
2023-01-28T17:19:13.145Z,4.50
2023-01-28T17:20:13.311Z,4.90
2023-01-28T17:21:15.033Z,4.90
2023-01-28T17:22:13.593Z,4.60
2023-01-28T17:23:13.732Z,4.90
2023-01-28T17:24:13.975Z,4.80
2023-01-28T17:25:14.513Z,4.80
2023-01-28T17:26:15.778Z,4.50
2023-01-28T17:27:15.262Z,5.10
2023-01-28T17:28:15.403Z,4.30
2023-01-28T17:29:15.633Z,4.30
2023-01-28T17:30:14.706Z,4.80
2023-01-28T17:31:14.868Z,4.50
2023-01-28T17:32:15.026Z,5.50
2023-01-28T17:33:16.651Z,4.80
2023-01-28T17:34:16.122Z,4.60
2023-01-28T17:35:16.908Z,4.50
2023-01-28T17:36:15.402Z,4.70
2023-01-28T17:37:16.517Z,4.40
2023-01-28T17:38:16.739Z,4.40
2023-01-28T17:39:15.742Z,4.50
2023-01-28T17:40:15.901Z,5.00